sensor_id;sensor_type;location;lat;lon;timestamp;P1;durP1;ratioP1;P2;durP2;ratioP2
73575;SDS011;61859;49.204;8.140;2023-08-30T00:01:48;2.77;;;2.10;;
73575;SDS011;61859;49.204;8.140;2023-08-30T00:04:14;2.60;;;1.87;;
73575;SDS011;61859;49.204;8.140;2023-08-30T00:06:40;2.30;;;2.10;;
73575;SDS011;61859;49.204;8.140;2023-08-30T00:09:05;2.30;;;2.10;;
73575;SDS011;61859;49.204;8.140;2023-08-30T00:11:31;3.03;;;1.93;;
73575;SDS011;61859;49.204;8.140;2023-08-30T00:14:04;2.10;;;1.90;;
73575;SDS011;61859;49.204;8.140;2023-08-30T00:16:33;2.37;;;1.70;;
73575;SDS011;61859;49.204;8.140;2023-08-30T00:18:59;3.20;;;2.40;;
73575;SDS011;61859;49.204;8.140;2023-08-30T00:21:25;2.20;;;2.00;;
73575;SDS011;61859;49.204;8.140;2023-08-30T00:23:52;2.20;;;2.10;;
73575;SDS011;61859;49.204;8.140;2023-08-30T00:26:18;2.50;;;2.30;;
73575;SDS011;61859;49.204;8.140;2023-08-30T00:28:43;2.90;;;2.43;;
73575;SDS011;61859;49.204;8.140;2023-08-30T00:31:09;4.07;;;2.30;;
73575;SDS011;61859;49.204;8.140;2023-08-30T00:33:34;2.47;;;2.27;;
73575;SDS011;61859;49.204;8.140;2023-08-30T00:36:00;2.87;;;2.33;;
73575;SDS011;61859;49.204;8.140;2023-08-30T00:38:26;2.93;;;2.20;;
73575;SDS011;61859;49.204;8.140;2023-08-30T00:40:52;2.80;;;2.20;;
73575;SDS011;61859;49.204;8.140;2023-08-30T00:43:19;2.53;;;2.33;;
73575;SDS011;61859;49.204;8.140;2023-08-30T00:45:45;4.73;;;2.57;;
73575;SDS011;61859;49.204;8.140;2023-08-30T00:48:12;2.30;;;2.10;;
73575;SDS011;61859;49.204;8.140;2023-08-30T00:50:40;2.77;;;2.20;;
73575;SDS011;61859;49.204;8.140;2023-08-30T00:53:06;2.63;;;2.43;;
73575;SDS011;61859;49.204;8.140;2023-08-30T00:55:33;2.27;;;2.13;;
73575;SDS011;61859;49.204;8.140;2023-08-30T00:58:00;2.83;;;2.53;;
73575;SDS011;61859;49.204;8.140;2023-08-30T01:00:27;2.93;;;2.63;;
73575;SDS011;61859;49.204;8.140;2023-08-30T01:02:54;2.23;;;2.10;;
73575;SDS011;61859;49.204;8.140;2023-08-30T01:05:20;2.50;;;2.27;;
73575;SDS011;61859;49.204;8.140;2023-08-30T01:07:45;2.77;;;2.57;;
73575;SDS011;61859;49.204;8.140;2023-08-30T01:10:11;3.07;;;2.50;;
73575;SDS011;61859;49.204;8.140;2023-08-30T01:12:38;2.50;;;2.30;;
73575;SDS011;61859;49.204;8.140;2023-08-30T01:15:12;2.60;;;2.40;;
73575;SDS011;61859;49.204;8.140;2023-08-30T01:17:49;2.53;;;2.33;;
73575;SDS011;61859;49.204;8.140;2023-08-30T01:20:17;2.40;;;2.20;;
73575;SDS011;61859;49.204;8.140;2023-08-30T01:28:19;2.60;;;2.40;;
73575;SDS011;61859;49.204;8.140;2023-08-30T01:30:47;2.30;;;2.10;;
73575;SDS011;61859;49.204;8.140;2023-08-30T01:33:14;3.87;;;2.50;;
73575;SDS011;61859;49.204;8.140;2023-08-30T01:35:42;2.47;;;2.27;;
73575;SDS011;61859;49.204;8.140;2023-08-30T01:38:08;2.67;;;2.47;;
73575;SDS011;61859;49.204;8.140;2023-08-30T01:40:35;2.33;;;2.10;;
73575;SDS011;61859;49.204;8.140;2023-08-30T01:43:04;2.37;;;2.17;;
73575;SDS011;61859;49.204;8.140;2023-08-30T01:45:32;2.30;;;2.17;;
73575;SDS011;61859;49.204;8.140;2023-08-30T01:48:00;3.13;;;2.43;;
73575;SDS011;61859;49.204;8.140;2023-08-30T01:50:27;3.73;;;2.80;;
73575;SDS011;61859;49.204;8.140;2023-08-30T01:52:53;3.93;;;2.23;;
73575;SDS011;61859;49.204;8.140;2023-08-30T01:55:21;3.00;;;2.40;;
73575;SDS011;61859;49.204;8.140;2023-08-30T01:57:47;2.67;;;2.47;;
73575;SDS011;61859;49.204;8.140;2023-08-30T02:00:13;2.80;;;2.60;;
73575;SDS011;61859;49.204;8.140;2023-08-30T02:02:39;4.03;;;2.70;;
73575;SDS011;61859;49.204;8.140;2023-08-30T02:05:06;3.20;;;2.87;;
73575;SDS011;61859;49.204;8.140;2023-08-30T02:08:05;2.97;;;2.73;;
73575;SDS011;61859;49.204;8.140;2023-08-30T02:10:33;3.33;;;3.03;;
73575;SDS011;61859;49.204;8.140;2023-08-30T02:13:01;2.97;;;2.77;;
73575;SDS011;61859;49.204;8.140;2023-08-30T02:15:28;3.17;;;2.97;;
73575;SDS011;61859;49.204;8.140;2023-08-30T02:17:55;3.47;;;3.27;;
73575;SDS011;61859;49.204;8.140;2023-08-30T02:20:21;3.63;;;2.93;;
73575;SDS011;61859;49.204;8.140;2023-08-30T02:22:47;3.37;;;3.07;;
73575;SDS011;61859;49.204;8.140;2023-08-30T02:25:13;3.50;;;3.20;;
73575;SDS011;61859;49.204;8.140;2023-08-30T02:27:38;3.47;;;2.80;;
73575;SDS011;61859;49.204;8.140;2023-08-30T02:30:04;5.33;;;3.03;;
73575;SDS011;61859;49.204;8.140;2023-08-30T02:32:30;2.93;;;2.63;;
73575;SDS011;61859;49.204;8.140;2023-08-30T02:34:56;6.43;;;2.80;;
73575;SDS011;61859;49.204;8.140;2023-08-30T02:37:22;6.97;;;2.67;;
73575;SDS011;61859;49.204;8.140;2023-08-30T02:39:48;3.77;;;3.00;;
73575;SDS011;61859;49.204;8.140;2023-08-30T02:42:14;2.77;;;2.57;;
73575;SDS011;61859;49.204;8.140;2023-08-30T02:44:40;3.40;;;3.10;;
73575;SDS011;61859;49.204;8.140;2023-08-30T02:47:05;3.00;;;2.80;;
73575;SDS011;61859;49.204;8.140;2023-08-30T02:49:31;3.87;;;2.97;;
73575;SDS011;61859;49.204;8.140;2023-08-30T02:51:56;3.07;;;2.83;;
73575;SDS011;61859;49.204;8.140;2023-08-30T02:54:22;2.90;;;2.60;;
73575;SDS011;61859;49.204;8.140;2023-08-30T02:56:48;2.73;;;2.53;;
73575;SDS011;61859;49.204;8.140;2023-08-30T02:59:14;3.80;;;2.87;;
73575;SDS011;61859;49.204;8.140;2023-08-30T03:01:39;3.50;;;3.17;;
73575;SDS011;61859;49.204;8.140;2023-08-30T03:04:05;3.53;;;3.23;;
73575;SDS011;61859;49.204;8.140;2023-08-30T03:06:34;4.53;;;3.77;;
73575;SDS011;61859;49.204;8.140;2023-08-30T03:09:00;3.70;;;3.40;;
73575;SDS011;61859;49.204;8.140;2023-08-30T03:11:28;4.23;;;3.83;;
73575;SDS011;61859;49.204;8.140;2023-08-30T03:13:53;4.27;;;3.90;;
73575;SDS011;61859;49.204;8.140;2023-08-30T03:16:20;4.43;;;3.87;;
73575;SDS011;61859;49.204;8.140;2023-08-30T03:18:46;4.17;;;3.87;;
73575;SDS011;61859;49.204;8.140;2023-08-30T03:21:12;4.77;;;4.37;;
73575;SDS011;61859;49.204;8.140;2023-08-30T03:23:38;6.00;;;3.90;;
73575;SDS011;61859;49.204;8.140;2023-08-30T03:26:08;4.30;;;3.93;;
73575;SDS011;61859;49.204;8.140;2023-08-30T03:28:34;6.83;;;4.50;;
73575;SDS011;61859;49.204;8.140;2023-08-30T03:31:00;4.57;;;4.07;;
73575;SDS011;61859;49.204;8.140;2023-08-30T03:33:25;4.50;;;4.10;;
73575;SDS011;61859;49.204;8.140;2023-08-30T03:35:51;4.40;;;4.10;;
73575;SDS011;61859;49.204;8.140;2023-08-30T03:38:16;4.87;;;4.47;;
73575;SDS011;61859;49.204;8.140;2023-08-30T03:40:42;5.07;;;4.50;;
73575;SDS011;61859;49.204;8.140;2023-08-30T03:43:08;4.30;;;3.90;;
73575;SDS011;61859;49.204;8.140;2023-08-30T03:45:35;4.77;;;4.37;;
73575;SDS011;61859;49.204;8.140;2023-08-30T03:48:01;4.63;;;4.23;;
73575;SDS011;61859;49.204;8.140;2023-08-30T03:50:28;4.70;;;4.20;;
73575;SDS011;61859;49.204;8.140;2023-08-30T03:52:53;6.10;;;4.43;;
73575;SDS011;61859;49.204;8.140;2023-08-30T03:55:19;5.47;;;4.97;;
73575;SDS011;61859;49.204;8.140;2023-08-30T03:57:44;5.43;;;4.70;;
73575;SDS011;61859;49.204;8.140;2023-08-30T04:00:10;5.33;;;4.83;;
73575;SDS011;61859;49.204;8.140;2023-08-30T04:02:36;5.37;;;4.87;;
73575;SDS011;61859;49.204;8.140;2023-08-30T04:05:02;5.30;;;4.80;;
73575;SDS011;61859;49.204;8.140;2023-08-30T04:07:28;5.03;;;4.53;;
73575;SDS011;61859;49.204;8.140;2023-08-30T04:09:54;6.13;;;5.20;;
73575;SDS011;61859;49.204;8.140;2023-08-30T04:12:19;6.00;;;4.70;;
73575;SDS011;61859;49.204;8.140;2023-08-30T04:14:45;6.50;;;4.97;;
73575;SDS011;61859;49.204;8.140;2023-08-30T04:17:10;5.97;;;5.43;;
73575;SDS011;61859;49.204;8.140;2023-08-30T04:19:36;5.23;;;4.67;;
73575;SDS011;61859;49.204;8.140;2023-08-30T04:22:01;5.40;;;4.93;;
73575;SDS011;61859;49.204;8.140;2023-08-30T04:24:27;7.00;;;5.20;;
73575;SDS011;61859;49.204;8.140;2023-08-30T04:26:53;6.33;;;4.83;;
73575;SDS011;61859;49.204;8.140;2023-08-30T04:29:19;6.17;;;5.23;;
73575;SDS011;61859;49.204;8.140;2023-08-30T04:31:45;5.47;;;4.97;;
73575;SDS011;61859;49.204;8.140;2023-08-30T04:34:10;5.60;;;5.10;;
73575;SDS011;61859;49.204;8.140;2023-08-30T04:36:36;6.67;;;5.20;;
73575;SDS011;61859;49.204;8.140;2023-08-30T04:39:01;5.50;;;4.77;;
73575;SDS011;61859;49.204;8.140;2023-08-30T04:41:27;5.80;;;5.20;;
73575;SDS011;61859;49.204;8.140;2023-08-30T04:43:53;6.23;;;5.63;;
73575;SDS011;61859;49.204;8.140;2023-08-30T04:46:18;5.77;;;5.13;;
73575;SDS011;61859;49.204;8.140;2023-08-30T04:48:44;6.50;;;5.77;;
73575;SDS011;61859;49.204;8.140;2023-08-30T04:51:10;6.03;;;5.47;;
73575;SDS011;61859;49.204;8.140;2023-08-30T04:53:36;8.77;;;5.93;;
73575;SDS011;61859;49.204;8.140;2023-08-30T04:56:09;6.67;;;6.00;;
73575;SDS011;61859;49.204;8.140;2023-08-30T04:58:38;6.23;;;5.63;;
73575;SDS011;61859;49.204;8.140;2023-08-30T05:01:04;6.47;;;5.67;;
73575;SDS011;61859;49.204;8.140;2023-08-30T05:03:30;6.13;;;5.47;;
73575;SDS011;61859;49.204;8.140;2023-08-30T05:05:55;6.43;;;5.83;;
73575;SDS011;61859;49.204;8.140;2023-08-30T05:08:21;6.87;;;5.70;;
73575;SDS011;61859;49.204;8.140;2023-08-30T05:10:46;6.40;;;5.80;;
73575;SDS011;61859;49.204;8.140;2023-08-30T05:13:14;6.80;;;6.20;;
73575;SDS011;61859;49.204;8.140;2023-08-30T05:15:40;6.13;;;5.53;;
73575;SDS011;61859;49.204;8.140;2023-08-30T05:18:06;6.70;;;6.10;;
73575;SDS011;61859;49.204;8.140;2023-08-30T05:20:31;6.80;;;6.10;;
73575;SDS011;61859;49.204;8.140;2023-08-30T05:22:57;6.77;;;5.00;;
73575;SDS011;61859;49.204;8.140;2023-08-30T05:25:22;6.53;;;5.93;;
73575;SDS011;61859;49.204;8.140;2023-08-30T05:27:48;6.03;;;5.53;;
73575;SDS011;61859;49.204;8.140;2023-08-30T05:30:14;6.67;;;5.60;;
73575;SDS011;61859;49.204;8.140;2023-08-30T05:32:40;6.40;;;5.80;;
73575;SDS011;61859;49.204;8.140;2023-08-30T05:35:05;6.20;;;5.50;;
73575;SDS011;61859;49.204;8.140;2023-08-30T05:37:31;5.80;;;5.20;;
73575;SDS011;61859;49.204;8.140;2023-08-30T05:39:57;6.37;;;5.57;;
73575;SDS011;61859;49.204;8.140;2023-08-30T05:42:23;6.63;;;5.60;;
73575;SDS011;61859;49.204;8.140;2023-08-30T05:44:48;10.10;;;5.63;;
73575;SDS011;61859;49.204;8.140;2023-08-30T05:47:14;6.63;;;5.80;;
73575;SDS011;61859;49.204;8.140;2023-08-30T05:49:41;8.13;;;5.40;;
73575;SDS011;61859;49.204;8.140;2023-08-30T05:52:07;5.77;;;5.17;;
73575;SDS011;61859;49.204;8.140;2023-08-30T05:54:33;6.90;;;5.80;;
73575;SDS011;61859;49.204;8.140;2023-08-30T05:56:59;6.03;;;5.00;;
73575;SDS011;61859;49.204;8.140;2023-08-30T05:59:24;7.63;;;6.00;;
73575;SDS011;61859;49.204;8.140;2023-08-30T06:01:50;8.17;;;5.47;;
73575;SDS011;61859;49.204;8.140;2023-08-30T06:04:16;6.00;;;5.50;;
73575;SDS011;61859;49.204;8.140;2023-08-30T06:06:41;6.20;;;5.70;;
73575;SDS011;61859;49.204;8.140;2023-08-30T06:09:07;6.40;;;5.80;;
73575;SDS011;61859;49.204;8.140;2023-08-30T06:11:32;7.53;;;6.87;;
73575;SDS011;61859;49.204;8.140;2023-08-30T06:13:58;6.47;;;5.23;;
73575;SDS011;61859;49.204;8.140;2023-08-30T06:16:24;6.33;;;5.80;;
73575;SDS011;61859;49.204;8.140;2023-08-30T06:18:50;6.20;;;5.60;;
73575;SDS011;61859;49.204;8.140;2023-08-30T06:21:16;5.47;;;4.97;;
73575;SDS011;61859;49.204;8.140;2023-08-30T06:23:41;5.57;;;5.07;;
73575;SDS011;61859;49.204;8.140;2023-08-30T06:26:07;6.73;;;5.27;;
73575;SDS011;61859;49.204;8.140;2023-08-30T06:28:33;5.20;;;4.73;;
73575;SDS011;61859;49.204;8.140;2023-08-30T06:30:58;5.83;;;5.20;;
73575;SDS011;61859;49.204;8.140;2023-08-30T06:33:24;5.57;;;5.07;;
73575;SDS011;61859;49.204;8.140;2023-08-30T06:35:49;5.57;;;5.07;;
73575;SDS011;61859;49.204;8.140;2023-08-30T06:38:18;6.57;;;5.97;;
73575;SDS011;61859;49.204;8.140;2023-08-30T06:40:45;5.77;;;5.27;;
73575;SDS011;61859;49.204;8.140;2023-08-30T06:43:11;8.43;;;5.23;;
73575;SDS011;61859;49.204;8.140;2023-08-30T06:45:38;6.20;;;5.60;;
73575;SDS011;61859;49.204;8.140;2023-08-30T06:48:04;5.57;;;5.07;;
73575;SDS011;61859;49.204;8.140;2023-08-30T06:50:33;5.67;;;5.13;;
73575;SDS011;61859;49.204;8.140;2023-08-30T06:52:59;5.37;;;4.87;;
73575;SDS011;61859;49.204;8.140;2023-08-30T06:55:25;5.17;;;4.67;;
73575;SDS011;61859;49.204;8.140;2023-08-30T06:57:50;6.23;;;5.33;;
73575;SDS011;61859;49.204;8.140;2023-08-30T07:00:16;6.00;;;5.40;;
73575;SDS011;61859;49.204;8.140;2023-08-30T07:02:42;5.37;;;4.87;;
73575;SDS011;61859;49.204;8.140;2023-08-30T07:05:10;5.07;;;4.57;;
73575;SDS011;61859;49.204;8.140;2023-08-30T07:07:36;6.77;;;4.07;;
73575;SDS011;61859;49.204;8.140;2023-08-30T07:10:02;4.93;;;4.07;;
73575;SDS011;61859;49.204;8.140;2023-08-30T07:12:28;5.17;;;4.23;;
73575;SDS011;61859;49.204;8.140;2023-08-30T07:14:53;4.73;;;4.33;;
73575;SDS011;61859;49.204;8.140;2023-08-30T07:17:19;4.70;;;4.30;;
73575;SDS011;61859;49.204;8.140;2023-08-30T07:19:45;4.73;;;4.33;;
73575;SDS011;61859;49.204;8.140;2023-08-30T07:22:10;4.17;;;3.87;;
73575;SDS011;61859;49.204;8.140;2023-08-30T07:24:36;4.33;;;3.93;;
73575;SDS011;61859;49.204;8.140;2023-08-30T07:27:02;5.00;;;4.53;;
73575;SDS011;61859;49.204;8.140;2023-08-30T07:29:28;5.20;;;4.70;;
73575;SDS011;61859;49.204;8.140;2023-08-30T07:31:53;4.67;;;4.17;;
73575;SDS011;61859;49.204;8.140;2023-08-30T07:34:19;4.63;;;4.20;;
73575;SDS011;61859;49.204;8.140;2023-08-30T07:36:45;4.77;;;4.37;;
73575;SDS011;61859;49.204;8.140;2023-08-30T07:39:11;4.47;;;4.07;;
73575;SDS011;61859;49.204;8.140;2023-08-30T07:41:37;8.10;;;4.47;;
73575;SDS011;61859;49.204;8.140;2023-08-30T07:44:02;5.33;;;4.40;;
73575;SDS011;61859;49.204;8.140;2023-08-30T07:46:28;4.90;;;4.40;;
73575;SDS011;61859;49.204;8.140;2023-08-30T07:48:53;4.70;;;4.30;;
73575;SDS011;61859;49.204;8.140;2023-08-30T07:51:19;4.70;;;4.30;;
73575;SDS011;61859;49.204;8.140;2023-08-30T07:53:45;4.63;;;4.23;;
73575;SDS011;61859;49.204;8.140;2023-08-30T07:56:10;4.80;;;4.20;;
73575;SDS011;61859;49.204;8.140;2023-08-30T07:58:36;5.43;;;4.93;;
73575;SDS011;61859;49.204;8.140;2023-08-30T08:01:01;4.97;;;4.57;;
73575;SDS011;61859;49.204;8.140;2023-08-30T08:03:28;4.80;;;4.40;;
73575;SDS011;61859;49.204;8.140;2023-08-30T08:05:53;5.40;;;3.83;;
73575;SDS011;61859;49.204;8.140;2023-08-30T08:08:19;4.73;;;4.33;;
73575;SDS011;61859;49.204;8.140;2023-08-30T08:10:44;4.27;;;3.87;;
73575;SDS011;61859;49.204;8.140;2023-08-30T08:13:10;4.87;;;4.40;;
73575;SDS011;61859;49.204;8.140;2023-08-30T08:15:37;4.60;;;4.20;;
73575;SDS011;61859;49.204;8.140;2023-08-30T08:18:03;5.17;;;3.97;;
73575;SDS011;61859;49.204;8.140;2023-08-30T08:20:29;4.10;;;3.70;;
73575;SDS011;61859;49.204;8.140;2023-08-30T08:22:55;4.90;;;3.77;;
73575;SDS011;61859;49.204;8.140;2023-08-30T08:25:20;3.73;;;3.43;;
73575;SDS011;61859;49.204;8.140;2023-08-30T08:27:48;4.17;;;3.77;;
73575;SDS011;61859;49.204;8.140;2023-08-30T08:30:14;4.57;;;3.60;;
73575;SDS011;61859;49.204;8.140;2023-08-30T08:32:39;3.97;;;3.67;;
73575;SDS011;61859;49.204;8.140;2023-08-30T08:35:05;4.00;;;3.60;;
73575;SDS011;61859;49.204;8.140;2023-08-30T08:37:31;3.60;;;3.30;;
73575;SDS011;61859;49.204;8.140;2023-08-30T08:39:57;3.70;;;3.40;;
73575;SDS011;61859;49.204;8.140;2023-08-30T08:42:23;4.60;;;3.47;;
73575;SDS011;61859;49.204;8.140;2023-08-30T08:44:50;4.53;;;3.50;;
73575;SDS011;61859;49.204;8.140;2023-08-30T08:47:16;3.40;;;3.10;;
73575;SDS011;61859;49.204;8.140;2023-08-30T08:49:43;4.80;;;3.87;;
73575;SDS011;61859;49.204;8.140;2023-08-30T08:52:09;5.53;;;4.20;;
73575;SDS011;61859;49.204;8.140;2023-08-30T08:54:36;6.70;;;4.70;;
73575;SDS011;61859;49.204;8.140;2023-08-30T08:57:05;6.77;;;4.57;;
73575;SDS011;61859;49.204;8.140;2023-08-30T08:59:32;6.93;;;4.03;;
73575;SDS011;61859;49.204;8.140;2023-08-30T09:01:57;5.90;;;3.93;;
73575;SDS011;61859;49.204;8.140;2023-08-30T09:04:25;4.20;;;3.77;;
73575;SDS011;61859;49.204;8.140;2023-08-30T09:06:51;4.10;;;3.70;;
73575;SDS011;61859;49.204;8.140;2023-08-30T09:09:17;4.17;;;3.77;;
73575;SDS011;61859;49.204;8.140;2023-08-30T09:11:43;4.47;;;4.07;;
73575;SDS011;61859;49.204;8.140;2023-08-30T09:14:08;4.40;;;4.00;;
73575;SDS011;61859;49.204;8.140;2023-08-30T09:16:34;5.63;;;4.20;;
73575;SDS011;61859;49.204;8.140;2023-08-30T09:19:00;6.63;;;4.07;;
73575;SDS011;61859;49.204;8.140;2023-08-30T09:21:28;4.43;;;4.03;;
73575;SDS011;61859;49.204;8.140;2023-08-30T09:23:57;4.83;;;3.70;;
73575;SDS011;61859;49.204;8.140;2023-08-30T09:26:23;5.97;;;4.17;;
73575;SDS011;61859;49.204;8.140;2023-08-30T09:28:49;3.40;;;3.03;;
73575;SDS011;61859;49.204;8.140;2023-08-30T09:31:18;3.53;;;2.70;;
73575;SDS011;61859;49.204;8.140;2023-08-30T09:33:44;3.33;;;2.93;;
73575;SDS011;61859;49.204;8.140;2023-08-30T09:36:10;3.60;;;2.40;;
73575;SDS011;61859;49.204;8.140;2023-08-30T09:38:39;2.60;;;2.40;;
73575;SDS011;61859;49.204;8.140;2023-08-30T09:41:05;5.57;;;2.83;;
73575;SDS011;61859;49.204;8.140;2023-08-30T09:43:31;2.83;;;2.43;;
73575;SDS011;61859;49.204;8.140;2023-08-30T09:46:02;2.30;;;2.20;;
73575;SDS011;61859;49.204;8.140;2023-08-30T09:48:30;3.10;;;2.70;;
73575;SDS011;61859;49.204;8.140;2023-08-30T09:50:57;2.70;;;2.50;;
73575;SDS011;61859;49.204;8.140;2023-08-30T09:53:25;2.60;;;2.40;;
73575;SDS011;61859;49.204;8.140;2023-08-30T09:55:54;2.70;;;2.50;;
73575;SDS011;61859;49.204;8.140;2023-08-30T09:58:21;2.20;;;2.00;;
73575;SDS011;61859;49.204;8.140;2023-08-30T10:00:48;3.83;;;2.50;;
73575;SDS011;61859;49.204;8.140;2023-08-30T10:03:14;2.53;;;2.33;;
73575;SDS011;61859;49.204;8.140;2023-08-30T10:05:41;2.63;;;2.42;;
73575;SDS011;61859;49.204;8.140;2023-08-30T10:08:08;2.20;;;2.00;;
73575;SDS011;61859;49.204;8.140;2023-08-30T10:10:35;2.30;;;2.10;;
73575;SDS011;61859;49.204;8.140;2023-08-30T10:13:02;2.20;;;2.00;;
73575;SDS011;61859;49.204;8.140;2023-08-30T10:15:30;1.90;;;1.80;;
73575;SDS011;61859;49.204;8.140;2023-08-30T10:18:00;1.70;;;1.60;;
73575;SDS011;61859;49.204;8.140;2023-08-30T10:20:27;2.57;;;1.63;;
73575;SDS011;61859;49.204;8.140;2023-08-30T10:22:53;2.70;;;1.40;;
73575;SDS011;61859;49.204;8.140;2023-08-30T10:25:22;1.60;;;1.50;;
73575;SDS011;61859;49.204;8.140;2023-08-30T10:27:51;1.50;;;1.40;;
73575;SDS011;61859;49.204;8.140;2023-08-30T10:30:18;1.93;;;1.70;;
73575;SDS011;61859;49.204;8.140;2023-08-30T10:32:46;1.73;;;1.63;;
73575;SDS011;61859;49.204;8.140;2023-08-30T10:35:12;1.70;;;1.60;;
73575;SDS011;61859;49.204;8.140;2023-08-30T10:37:39;2.10;;;1.90;;
73575;SDS011;61859;49.204;8.140;2023-08-30T10:40:05;2.07;;;1.60;;
73575;SDS011;61859;49.204;8.140;2023-08-30T10:42:32;2.80;;;1.70;;
73575;SDS011;61859;49.204;8.140;2023-08-30T10:47:30;1.90;;;1.50;;
73575;SDS011;61859;49.204;8.140;2023-08-30T10:50:00;1.93;;;1.50;;
73575;SDS011;61859;49.204;8.140;2023-08-30T10:52:29;1.60;;;1.50;;
73575;SDS011;61859;49.204;8.140;2023-08-30T10:55:05;2.60;;;1.50;;
73575;SDS011;61859;49.204;8.140;2023-08-30T10:57:32;2.10;;;1.60;;
73575;SDS011;61859;49.204;8.140;2023-08-30T11:02:34;1.67;;;1.40;;
73575;SDS011;61859;49.204;8.140;2023-08-30T11:05:00;1.80;;;1.20;;
73575;SDS011;61859;49.204;8.140;2023-08-30T11:07:28;1.70;;;1.60;;
73575;SDS011;61859;49.204;8.140;2023-08-30T11:09:54;1.70;;;1.55;;
73575;SDS011;61859;49.204;8.140;2023-08-30T11:12:20;1.60;;;1.48;;
73575;SDS011;61859;49.204;8.140;2023-08-30T11:14:47;1.30;;;1.00;;
73575;SDS011;61859;49.204;8.140;2023-08-30T11:17:15;1.00;;;0.95;;
73575;SDS011;61859;49.204;8.140;2023-08-30T11:19:42;2.08;;;1.10;;
73575;SDS011;61859;49.204;8.140;2023-08-30T11:22:07;2.05;;;1.35;;
73575;SDS011;61859;49.204;8.140;2023-08-30T11:24:33;1.30;;;1.20;;
73575;SDS011;61859;49.204;8.140;2023-08-30T11:26:59;1.35;;;1.02;;
73575;SDS011;61859;49.204;8.140;2023-08-30T11:29:26;1.55;;;1.25;;
73575;SDS011;61859;49.204;8.140;2023-08-30T11:31:52;1.48;;;1.20;;
73575;SDS011;61859;49.204;8.140;2023-08-30T11:34:21;1.60;;;1.10;;
73575;SDS011;61859;49.204;8.140;2023-08-30T11:36:50;1.30;;;1.10;;
73575;SDS011;61859;49.204;8.140;2023-08-30T11:39:17;1.60;;;1.30;;
73575;SDS011;61859;49.204;8.140;2023-08-30T11:41:43;2.15;;;1.50;;
73575;SDS011;61859;49.204;8.140;2023-08-30T11:44:10;0.90;;;0.90;;
73575;SDS011;61859;49.204;8.140;2023-08-30T11:46:36;1.45;;;1.25;;
73575;SDS011;61859;49.204;8.140;2023-08-30T11:49:01;1.52;;;0.95;;
73575;SDS011;61859;49.204;8.140;2023-08-30T11:51:28;1.30;;;1.20;;
73575;SDS011;61859;49.204;8.140;2023-08-30T11:53:54;1.23;;;1.05;;
73575;SDS011;61859;49.204;8.140;2023-08-30T11:56:21;1.40;;;1.25;;
73575;SDS011;61859;49.204;8.140;2023-08-30T11:58:47;1.50;;;1.40;;
73575;SDS011;61859;49.204;8.140;2023-08-30T12:01:13;1.20;;;1.10;;
73575;SDS011;61859;49.204;8.140;2023-08-30T12:03:39;0.80;;;0.80;;
73575;SDS011;61859;49.204;8.140;2023-08-30T12:06:09;2.83;;;1.05;;
73575;SDS011;61859;49.204;8.140;2023-08-30T12:08:35;1.60;;;1.20;;
73575;SDS011;61859;49.204;8.140;2023-08-30T12:11:01;1.13;;;1.10;;
73575;SDS011;61859;49.204;8.140;2023-08-30T12:15:54;1.38;;;1.27;;
73575;SDS011;61859;49.204;8.140;2023-08-30T12:18:21;2.83;;;1.13;;
73575;SDS011;61859;49.204;8.140;2023-08-30T12:23:23;1.02;;;0.93;;
73575;SDS011;61859;49.204;8.140;2023-08-30T12:25:57;1.65;;;1.30;;
73575;SDS011;61859;49.204;8.140;2023-08-30T12:28:23;1.42;;;1.25;;
73575;SDS011;61859;49.204;8.140;2023-08-30T12:30:53;2.10;;;0.90;;
73575;SDS011;61859;49.204;8.140;2023-08-30T12:33:19;1.00;;;1.00;;
73575;SDS011;61859;49.204;8.140;2023-08-30T12:35:45;1.20;;;1.10;;
73575;SDS011;61859;49.204;8.140;2023-08-30T12:38:11;2.00;;;1.20;;
73575;SDS011;61859;49.204;8.140;2023-08-30T12:40:37;1.75;;;1.00;;
73575;SDS011;61859;49.204;8.140;2023-08-30T12:43:03;2.88;;;1.30;;
73575;SDS011;61859;49.204;8.140;2023-08-30T12:45:29;1.65;;;0.88;;
73575;SDS011;61859;49.204;8.140;2023-08-30T12:47:54;1.88;;;1.10;;
73575;SDS011;61859;49.204;8.140;2023-08-30T12:50:23;0.90;;;0.90;;
73575;SDS011;61859;49.204;8.140;2023-08-30T12:52:49;3.60;;;1.20;;
73575;SDS011;61859;49.204;8.140;2023-08-30T12:55:14;1.73;;;1.30;;
73575;SDS011;61859;49.204;8.140;2023-08-30T12:57:40;1.25;;;1.15;;
73575;SDS011;61859;49.204;8.140;2023-08-30T13:00:06;3.05;;;1.05;;
73575;SDS011;61859;49.204;8.140;2023-08-30T13:02:32;1.45;;;1.17;;
73575;SDS011;61859;49.204;8.140;2023-08-30T13:04:57;1.40;;;1.13;;
73575;SDS011;61859;49.204;8.140;2023-08-30T13:07:23;1.50;;;1.13;;
73575;SDS011;61859;49.204;8.140;2023-08-30T13:09:49;1.20;;;1.10;;
73575;SDS011;61859;49.204;8.140;2023-08-30T13:12:15;2.67;;;1.30;;
73575;SDS011;61859;49.204;8.140;2023-08-30T13:14:40;1.88;;;1.10;;
73575;SDS011;61859;49.204;8.140;2023-08-30T13:17:06;1.40;;;1.08;;
73575;SDS011;61859;49.204;8.140;2023-08-30T13:19:31;1.58;;;1.10;;
73575;SDS011;61859;49.204;8.140;2023-08-30T13:21:57;2.20;;;1.00;;
73575;SDS011;61859;49.204;8.140;2023-08-30T13:24:22;1.00;;;0.93;;
73575;SDS011;61859;49.204;8.140;2023-08-30T13:26:48;2.38;;;1.00;;
73575;SDS011;61859;49.204;8.140;2023-08-30T13:29:14;1.00;;;1.00;;
73575;SDS011;61859;49.204;8.140;2023-08-30T13:31:40;0.93;;;0.93;;
73575;SDS011;61859;49.204;8.140;2023-08-30T13:34:05;2.65;;;0.90;;
73575;SDS011;61859;49.204;8.140;2023-08-30T13:36:31;1.23;;;1.00;;
73575;SDS011;61859;49.204;8.140;2023-08-30T13:38:57;5.60;;;1.55;;
73575;SDS011;61859;49.204;8.140;2023-08-30T13:41:22;1.35;;;1.25;;
73575;SDS011;61859;49.204;8.140;2023-08-30T13:43:48;1.30;;;1.20;;
73575;SDS011;61859;49.204;8.140;2023-08-30T13:46:13;1.85;;;1.40;;
73575;SDS011;61859;49.204;8.140;2023-08-30T13:48:39;2.13;;;1.08;;
73575;SDS011;61859;49.204;8.140;2023-08-30T13:51:04;1.73;;;1.38;;
73575;SDS011;61859;49.204;8.140;2023-08-30T13:53:30;2.83;;;1.08;;
73575;SDS011;61859;49.204;8.140;2023-08-30T13:55:55;0.90;;;0.90;;
73575;SDS011;61859;49.204;8.140;2023-08-30T13:58:21;1.10;;;1.00;;
73575;SDS011;61859;49.204;8.140;2023-08-30T14:00:46;3.15;;;1.15;;
73575;SDS011;61859;49.204;8.140;2023-08-30T14:03:12;1.10;;;1.00;;
73575;SDS011;61859;49.204;8.140;2023-08-30T14:05:37;0.98;;;0.98;;
73575;SDS011;61859;49.204;8.140;2023-08-30T14:08:06;2.20;;;1.42;;
73575;SDS011;61859;49.204;8.140;2023-08-30T14:10:32;1.05;;;1.05;;
73575;SDS011;61859;49.204;8.140;2023-08-30T14:12:58;1.40;;;1.13;;
73575;SDS011;61859;49.204;8.140;2023-08-30T14:15:23;1.83;;;1.55;;
73575;SDS011;61859;49.204;8.140;2023-08-30T14:17:49;1.58;;;1.17;;
73575;SDS011;61859;49.204;8.140;2023-08-30T14:20:14;1.40;;;1.30;;
73575;SDS011;61859;49.204;8.140;2023-08-30T14:22:40;1.30;;;1.20;;
73575;SDS011;61859;49.204;8.140;2023-08-30T14:25:05;1.55;;;1.45;;
73575;SDS011;61859;49.204;8.140;2023-08-30T14:27:31;1.27;;;1.20;;
73575;SDS011;61859;49.204;8.140;2023-08-30T14:29:56;1.85;;;1.20;;
73575;SDS011;61859;49.204;8.140;2023-08-30T14:32:22;1.48;;;1.38;;
73575;SDS011;61859;49.204;8.140;2023-08-30T14:34:48;1.27;;;1.17;;
73575;SDS011;61859;49.204;8.140;2023-08-30T14:37:13;2.38;;;1.65;;
73575;SDS011;61859;49.204;8.140;2023-08-30T14:39:39;3.20;;;1.48;;
73575;SDS011;61859;49.204;8.140;2023-08-30T14:42:04;2.17;;;1.50;;
73575;SDS011;61859;49.204;8.140;2023-08-30T14:44:30;1.48;;;1.38;;
73575;SDS011;61859;49.204;8.140;2023-08-30T14:46:55;2.40;;;1.30;;
73575;SDS011;61859;49.204;8.140;2023-08-30T14:49:21;1.92;;;1.38;;
73575;SDS011;61859;49.204;8.140;2023-08-30T14:51:46;2.13;;;1.45;;
73575;SDS011;61859;49.204;8.140;2023-08-30T14:54:12;3.53;;;1.58;;
73575;SDS011;61859;49.204;8.140;2023-08-30T14:56:37;1.33;;;1.23;;
73575;SDS011;61859;49.204;8.140;2023-08-30T14:59:03;1.85;;;1.35;;